createdAt,value
2023-05-09T06:33:15.089Z,37.85
2023-05-09T06:34:29.522Z,37.99
2023-05-09T06:35:31.617Z,37.60
2023-05-09T06:36:35.057Z,37.90
2023-05-09T06:37:37.208Z,37.58
2023-05-09T06:38:40.026Z,37.58
2023-05-09T06:39:42.192Z,37.76
2023-05-09T06:40:44.400Z,37.61
2023-05-09T06:41:46.507Z,37.46
2023-05-09T06:42:50.471Z,37.75
2023-05-09T06:43:52.716Z,37.81
2023-05-09T06:44:56.693Z,37.17
2023-05-09T06:45:58.718Z,36.81
2023-05-09T06:47:00.923Z,35.96
2023-05-09T06:48:04.849Z,36.63
2023-05-09T06:49:06.965Z,36.42
2023-05-09T06:50:11.799Z,35.78
2023-05-09T06:51:16.257Z,36.18
2023-05-09T06:52:18.469Z,35.37
2023-05-09T06:53:20.468Z,35.50
2023-05-09T06:54:22.562Z,35.62
2023-05-09T06:55:24.564Z,35.30
2023-05-09T06:56:26.841Z,35.19
2023-05-09T06:57:29.105Z,34.85
2023-05-09T06:58:31.381Z,34.13
2023-05-09T06:59:33.453Z,34.10
2023-05-09T07:00:38.336Z,33.50
2023-05-09T07:01:40.754Z,33.67
2023-05-09T07:02:43.426Z,33.59
2023-05-09T07:03:45.577Z,33.60
2023-05-09T07:04:49.682Z,33.47
2023-05-09T07:05:52.052Z,33.59
2023-05-09T07:06:54.260Z,33.62
2023-05-09T07:07:56.203Z,33.90
2023-05-09T07:08:58.358Z,34.01
2023-05-09T07:10:10.478Z,34.00
2023-05-09T07:11:07.730Z,33.71
2023-05-09T07:12:09.851Z,33.70
2023-05-09T07:13:11.965Z,33.64
2023-05-09T07:14:14.265Z,34.33
2023-05-09T07:15:25.582Z,34.51
2023-05-09T07:16:20.668Z,34.07
2023-05-09T07:17:24.278Z,32.90
2023-05-09T07:18:26.780Z,32.97
2023-05-09T07:19:28.827Z,32.54
2023-05-09T07:20:30.865Z,31.91
2023-05-09T07:21:32.793Z,32.37
2023-05-09T07:22:37.000Z,31.64
2023-05-09T07:23:39.034Z,31.45
2023-05-09T07:24:41.065Z,31.78
2023-05-09T07:25:42.974Z,31.95
2023-05-09T07:26:45.104Z,32.29
2023-05-09T07:27:47.137Z,32.08
2023-05-09T07:28:48.995Z,31.28
2023-05-09T07:29:51.012Z,31.63
2023-05-09T07:30:55.830Z,30.73
2023-05-09T07:32:16.416Z,30.05
2023-05-09T07:33:18.422Z,29.78
2023-05-09T07:34:20.513Z,29.38
2023-05-09T07:35:24.458Z,28.89
2023-05-09T07:36:26.662Z,27.94
2023-05-09T07:37:30.058Z,28.72
2023-05-09T07:38:32.264Z,28.56
2023-05-09T07:43:50.747Z,27.99
2023-05-09T07:44:53.071Z,27.52
2023-05-09T07:45:55.047Z,28.14
2023-05-09T07:46:58.247Z,28.16
2023-05-09T07:48:00.421Z,27.66
2023-05-09T07:49:03.122Z,27.08
2023-05-09T07:50:07.097Z,26.89
2023-05-09T07:51:09.229Z,27.47
2023-05-09T07:52:11.285Z,27.51
2023-05-09T07:53:14.299Z,27.29
2023-05-09T07:54:16.419Z,27.06
2023-05-09T07:55:20.429Z,26.45
2023-05-09T07:56:22.705Z,26.14
2023-05-09T07:57:24.709Z,26.57
2023-05-09T07:58:40.464Z,26.79
2023-05-09T07:59:42.614Z,26.48
2023-05-09T08:00:44.788Z,26.60
2023-05-09T08:01:46.857Z,26.65
2023-05-09T08:02:51.910Z,25.93
2023-05-09T08:03:54.459Z,26.32
2023-05-09T08:04:56.797Z,26.36
2023-05-09T08:05:58.962Z,26.26
2023-05-09T08:07:01.313Z,26.49
2023-05-09T08:08:06.574Z,26.67
2023-05-09T08:09:08.866Z,26.59
2023-05-09T08:10:11.068Z,26.06
2023-05-09T08:11:13.185Z,25.85
2023-05-09T08:12:15.258Z,25.73
2023-05-09T08:13:17.460Z,25.70
2023-05-09T08:14:19.521Z,25.59
2023-05-09T08:15:21.685Z,25.70
2023-05-09T08:16:23.743Z,25.42
2023-05-09T08:17:25.971Z,25.31
2023-05-09T08:18:28.048Z,24.86
2023-05-09T08:19:30.149Z,25.79
2023-05-09T08:20:34.222Z,25.66
2023-05-09T08:21:36.108Z,25.76
2023-05-09T08:22:41.042Z,25.31
2023-05-09T08:23:43.096Z,24.95
2023-05-09T08:24:49.648Z,24.71
2023-05-09T08:27:03.659Z,25.19
2023-05-09T08:28:06.089Z,25.04
2023-05-09T08:29:07.991Z,24.83
2023-05-09T08:30:14.528Z,25.57
2023-05-09T08:31:16.764Z,24.23
2023-05-09T08:32:18.806Z,24.80
2023-05-09T08:33:21.023Z,24.94
2023-05-09T08:34:23.142Z,25.08
2023-05-09T08:35:25.194Z,25.04
2023-05-09T08:36:27.334Z,25.04
2023-05-09T08:37:30.013Z,25.04
2023-05-09T08:38:32.026Z,25.02
2023-05-09T08:39:34.206Z,24.60
2023-05-09T08:43:11.520Z,24.66
2023-05-09T08:44:13.684Z,23.89
2023-05-09T08:45:15.841Z,23.17
2023-05-09T08:46:18.120Z,24.07
2023-05-09T08:47:20.148Z,23.40
2023-05-09T08:48:22.141Z,23.90
2023-05-09T08:49:24.462Z,24.25
2023-05-09T08:50:28.859Z,24.21
2023-05-09T08:51:32.295Z,24.52
2023-05-09T08:52:34.576Z,24.37
2023-05-09T08:53:36.592Z,23.86
2023-05-09T08:54:38.590Z,24.54
2023-05-09T08:55:40.593Z,24.69
2023-05-09T08:56:42.939Z,24.04
2023-05-09T08:57:45.000Z,24.07
2023-05-09T08:58:47.240Z,24.12
2023-05-09T08:59:49.282Z,24.28
2023-05-09T09:00:51.287Z,23.89
2023-05-09T09:01:53.452Z,24.24
2023-05-09T09:04:07.992Z,24.54
2023-05-09T09:05:23.841Z,23.74
2023-05-09T09:06:16.333Z,23.95
2023-05-09T09:07:18.386Z,24.16
2023-05-09T09:08:20.584Z,24.03
2023-05-09T09:10:44.409Z,23.67
2023-05-09T09:11:46.346Z,23.35
2023-05-09T09:12:50.045Z,23.33
2023-05-09T09:13:54.074Z,23.25
2023-05-09T09:14:56.541Z,23.20
2023-05-09T09:15:58.573Z,23.59
2023-05-09T09:17:01.096Z,23.45
2023-05-09T09:18:08.168Z,23.63
2023-05-09T09:19:15.325Z,23.68
2023-05-09T09:20:18.388Z,23.41
2023-05-09T09:21:20.652Z,23.50
2023-05-09T09:22:22.741Z,23.62
2023-05-09T09:23:25.673Z,23.35
2023-05-09T09:24:27.881Z,22.94
2023-05-09T09:25:29.957Z,23.40
2023-05-09T09:26:32.094Z,22.72
2023-05-09T09:27:34.102Z,23.43
2023-05-09T09:28:36.185Z,23.29
2023-05-09T09:29:38.372Z,23.38
2023-05-09T09:30:44.629Z,23.53
2023-05-09T09:31:47.426Z,23.35
2023-05-09T09:32:49.520Z,23.21
2023-05-09T09:33:51.729Z,22.66
2023-05-09T09:34:55.721Z,22.85
2023-05-09T09:35:57.776Z,22.86
2023-05-09T09:37:00.452Z,22.71
2023-05-09T09:38:03.180Z,22.82
2023-05-09T09:40:13.355Z,22.74
2023-05-09T09:41:16.084Z,22.43
2023-05-09T09:42:17.959Z,22.24
2023-05-09T09:43:19.944Z,22.09
2023-05-09T09:44:23.201Z,22.32
2023-05-09T09:45:25.355Z,22.24
2023-05-09T09:46:27.685Z,22.52
2023-05-09T09:47:32.592Z,22.15
2023-05-09T09:49:46.218Z,22.46
2023-05-09T09:50:48.689Z,22.46
2023-05-09T09:51:53.298Z,22.53
2023-05-09T09:52:56.218Z,22.61
2023-05-09T09:53:58.286Z,22.74
2023-05-09T09:55:00.411Z,22.91
2023-05-09T09:56:02.850Z,22.88
2023-05-09T09:57:04.869Z,22.87
2023-05-09T09:58:17.924Z,22.69
2023-05-09T09:59:21.085Z,22.68
2023-05-09T10:01:38.257Z,22.74
2023-05-09T10:02:55.380Z,22.90
2023-05-09T10:03:57.419Z,22.69
2023-05-09T10:05:09.216Z,22.41
2023-05-09T10:06:12.743Z,22.42
2023-05-09T10:07:15.307Z,22.51
2023-05-09T10:08:18.611Z,22.38
2023-05-09T10:09:25.120Z,22.27
2023-05-09T10:10:32.113Z,22.22
2023-05-09T10:11:34.329Z,22.28
2023-05-09T10:12:36.419Z,22.39
2023-05-09T10:13:38.327Z,22.30
2023-05-09T10:14:41.035Z,22.20
2023-05-09T10:15:52.931Z,22.10
2023-05-09T10:16:54.075Z,22.15
2023-05-09T10:17:57.911Z,22.34
2023-05-09T10:19:00.354Z,22.31
2023-05-09T10:20:06.748Z,22.35
2023-05-09T10:21:08.717Z,22.52
2023-05-09T10:22:12.788Z,22.52
2023-05-09T10:23:14.946Z,22.57
2023-05-09T10:24:19.871Z,22.56
2023-05-09T10:25:24.292Z,22.40
2023-05-09T10:26:26.555Z,22.67
2023-05-09T10:27:30.132Z,22.62
2023-05-09T10:28:34.981Z,22.85
2023-05-09T10:29:45.002Z,22.92
2023-05-09T10:30:56.305Z,22.86
2023-05-09T10:31:59.665Z,22.92
2023-05-09T10:33:09.240Z,23.06
2023-05-09T10:34:11.305Z,23.07
2023-05-09T10:35:13.652Z,22.84
2023-05-09T10:36:18.117Z,22.56
2023-05-09T10:37:23.328Z,22.71
2023-05-09T10:38:25.627Z,22.40
2023-05-09T10:39:29.509Z,22.73
2023-05-09T10:40:31.666Z,22.76
2023-05-09T10:41:33.710Z,22.94
2023-05-09T10:42:36.010Z,23.14
2023-05-09T10:43:38.606Z,22.55
2023-05-09T10:44:40.694Z,22.82
2023-05-09T10:45:43.029Z,22.97
2023-05-09T10:46:45.530Z,22.83
2023-05-09T10:47:48.923Z,22.91
2023-05-09T10:48:51.049Z,22.77
2023-05-09T10:49:54.003Z,22.64
2023-05-09T10:51:00.424Z,22.65
2023-05-09T10:52:02.594Z,22.52
2023-05-09T10:53:08.462Z,22.31
2023-05-09T10:54:14.383Z,22.19
2023-05-09T10:55:17.876Z,22.21
2023-05-09T10:56:33.006Z,22.10
2023-05-09T10:57:35.085Z,22.33
2023-05-09T10:58:39.808Z,22.42
2023-05-09T10:59:42.475Z,22.39
2023-05-09T11:00:44.726Z,22.31
2023-05-09T11:04:16.386Z,22.09
2023-05-09T11:05:22.143Z,22.26
2023-05-09T11:06:42.438Z,22.62
2023-05-09T11:07:44.661Z,22.45
2023-05-09T11:08:46.670Z,22.16
2023-05-09T11:10:16.253Z,22.03
2023-05-09T11:11:23.164Z,22.03
2023-05-09T11:12:25.211Z,21.94
2023-05-09T11:13:32.592Z,21.82
2023-05-09T11:14:41.503Z,21.95
2023-05-09T11:16:10.115Z,22.01
2023-05-09T11:17:24.965Z,22.03
2023-05-09T11:18:28.322Z,22.14
2023-05-09T11:19:49.218Z,22.37
2023-05-09T11:20:52.079Z,22.35
2023-05-09T11:22:02.493Z,22.53
2023-05-09T11:23:04.772Z,22.42
2023-05-09T11:24:16.954Z,22.47
2023-05-09T11:25:22.744Z,22.62
2023-05-09T11:26:28.444Z,22.85
2023-05-09T11:27:50.449Z,22.73
2023-05-09T11:28:53.360Z,22.67
2023-05-09T11:29:57.809Z,22.60
2023-05-09T11:31:16.490Z,22.38
2023-05-09T11:32:19.858Z,22.25
2023-05-09T11:33:23.150Z,22.29
2023-05-09T11:34:25.420Z,22.46
2023-05-09T11:35:27.591Z,22.61
2023-05-09T11:36:30.553Z,22.88
2023-05-09T11:37:33.602Z,22.56
2023-05-09T11:38:41.911Z,22.36
2023-05-09T11:40:00.662Z,22.49
2023-05-09T11:42:10.603Z,22.77
2023-05-09T11:43:12.853Z,22.84
2023-05-09T11:44:15.872Z,22.70
2023-05-09T11:45:18.317Z,22.81
2023-05-09T11:46:20.989Z,22.64
2023-05-09T11:47:24.756Z,23.29
2023-05-09T11:48:27.118Z,23.07
2023-05-09T11:49:29.202Z,23.24
2023-05-09T11:50:32.715Z,23.11
2023-05-09T11:51:37.717Z,23.39
2023-05-09T11:52:39.960Z,23.54
2023-05-09T11:53:44.092Z,23.58
2023-05-09T11:54:46.175Z,23.60
2023-05-09T11:55:48.852Z,23.62
2023-05-09T11:56:51.335Z,23.11
2023-05-09T11:57:53.849Z,23.30
2023-05-09T11:58:56.044Z,23.29
2023-05-09T11:59:59.358Z,23.19
2023-05-09T12:01:01.665Z,23.39
2023-05-09T12:02:04.407Z,23.57
2023-05-09T12:03:06.817Z,23.67
2023-05-09T12:04:09.466Z,23.38
2023-05-09T12:05:15.682Z,23.55
2023-05-09T12:06:18.926Z,23.38
2023-05-09T12:07:21.065Z,23.38
2023-05-09T12:08:24.108Z,23.65
2023-05-09T12:09:32.900Z,23.45
2023-05-09T12:11:50.369Z,23.53
2023-05-09T12:12:53.307Z,23.64
2023-05-09T12:15:09.481Z,23.17
2023-05-09T12:16:12.386Z,23.34
2023-05-09T12:17:14.891Z,23.53
2023-05-09T12:18:16.945Z,23.64
2023-05-09T12:19:19.079Z,23.16
2023-05-09T12:20:21.191Z,23.49
2023-05-09T12:21:23.404Z,23.71
2023-05-09T12:22:25.480Z,23.40
2023-05-09T12:23:27.399Z,23.28
2023-05-09T12:24:31.162Z,23.38
2023-05-09T12:25:35.538Z,22.50
2023-05-09T12:26:39.122Z,22.94
2023-05-09T12:27:43.127Z,23.28
2023-05-09T12:28:45.266Z,23.50
2023-05-09T12:29:47.586Z,23.50
2023-05-09T12:30:50.670Z,23.61
2023-05-09T12:31:52.958Z,23.79
2023-05-09T12:32:55.458Z,23.64
2023-05-09T12:33:57.845Z,23.44
2023-05-09T12:34:59.965Z,23.33
2023-05-09T12:38:39.703Z,24.42
2023-05-09T12:39:41.642Z,23.54
2023-05-09T12:40:49.312Z,23.40
2023-05-09T12:42:00.988Z,23.53
2023-05-09T12:42:57.247Z,23.65
2023-05-09T12:43:59.516Z,23.55
2023-05-09T12:45:02.251Z,23.62
2023-05-09T12:46:05.566Z,24.11
2023-05-09T12:47:07.787Z,23.78
2023-05-09T12:48:10.115Z,23.51
2023-05-09T12:49:22.942Z,23.60
2023-05-09T12:50:33.064Z,23.82
2023-05-09T12:51:35.287Z,23.72
2023-05-09T12:52:54.103Z,23.60
2023-05-09T12:53:45.697Z,23.69
2023-05-09T12:54:47.940Z,24.02
2023-05-09T12:55:50.025Z,23.95
2023-05-09T12:56:52.819Z,24.06
2023-05-09T12:57:59.778Z,23.71
2023-05-09T12:59:02.126Z,23.73
2023-05-09T13:00:08.986Z,23.88
2023-05-09T13:01:11.081Z,23.88
2023-05-09T13:02:13.193Z,23.79
2023-05-09T13:03:24.163Z,24.08
2023-05-09T13:04:27.693Z,24.11
2023-05-09T13:05:30.028Z,23.94
2023-05-09T13:06:33.059Z,23.53
2023-05-09T13:09:15.338Z,23.48
2023-05-09T13:10:25.540Z,23.53
2023-05-09T13:11:27.544Z,23.40
2023-05-09T13:12:29.478Z,23.69
2023-05-09T13:13:31.501Z,23.96
2023-05-09T13:14:33.604Z,24.06
2023-05-09T13:15:38.816Z,23.62
2023-05-09T13:16:43.845Z,23.79
2023-05-09T13:17:48.669Z,23.80
2023-05-09T13:18:52.696Z,23.17
2023-05-09T13:19:54.713Z,23.13
2023-05-09T13:20:56.740Z,23.00
2023-05-09T13:21:58.764Z,23.22
2023-05-09T13:23:00.795Z,23.30
2023-05-09T13:24:04.921Z,23.25
2023-05-09T13:25:10.248Z,23.34
2023-05-09T13:26:13.298Z,23.37
2023-05-09T13:27:15.347Z,23.43
2023-05-09T13:28:17.451Z,23.40
2023-05-09T13:29:19.576Z,23.52
2023-05-09T13:30:21.800Z,23.63
2023-05-09T13:31:24.208Z,23.70
2023-05-09T13:32:26.975Z,23.74
2023-05-09T13:33:29.502Z,23.84
2023-05-09T13:34:32.099Z,23.88
2023-05-09T13:35:34.137Z,24.04
2023-05-09T13:36:36.338Z,24.10
2023-05-09T13:37:38.425Z,23.98
2023-05-09T13:38:40.728Z,23.82
2023-05-09T13:39:43.333Z,24.05
2023-05-09T13:40:45.321Z,24.25
2023-05-09T13:41:47.500Z,24.35
2023-05-09T13:42:55.719Z,24.32
2023-05-09T13:43:58.047Z,24.10
2023-05-09T13:45:00.775Z,24.00
2023-05-09T13:46:02.908Z,24.00
2023-05-09T13:47:05.187Z,24.06
2023-05-09T13:48:07.496Z,23.81
2023-05-09T13:49:10.198Z,23.96
2023-05-09T13:50:14.840Z,24.16
2023-05-09T13:51:17.485Z,24.14
2023-05-09T13:52:19.819Z,24.03
2023-05-09T13:53:22.252Z,24.00
2023-05-09T13:54:24.464Z,24.08
2023-05-09T13:55:26.424Z,24.26
2023-05-09T13:56:28.459Z,24.32
2023-05-09T13:57:30.459Z,24.21
2023-05-09T13:58:33.375Z,24.24
2023-05-09T13:59:35.560Z,23.87
2023-05-09T14:00:37.708Z,23.98
2023-05-09T14:01:39.948Z,24.00
2023-05-09T14:02:42.009Z,23.93
2023-05-09T14:03:45.037Z,23.97
2023-05-09T14:04:47.190Z,24.13
2023-05-09T14:05:49.106Z,24.19
2023-05-09T14:06:51.414Z,24.26
2023-05-09T14:07:57.154Z,24.11
2023-05-09T14:08:59.230Z,24.07
2023-05-09T14:10:11.523Z,24.17
2023-05-09T14:11:05.542Z,24.26
2023-05-09T14:12:07.560Z,24.08
2023-05-09T14:13:10.884Z,23.93
2023-05-09T14:14:13.190Z,23.92
2023-05-09T14:15:16.166Z,24.10
2023-05-09T14:16:19.695Z,23.89
2023-05-09T14:17:24.404Z,23.86
2023-05-09T14:18:26.662Z,23.97
2023-05-09T14:19:29.018Z,24.34
2023-05-09T14:20:31.348Z,24.15
2023-05-09T14:21:33.579Z,24.43
2023-05-09T14:22:35.722Z,24.62
2023-05-09T14:23:37.796Z,24.61
2023-05-09T14:24:39.943Z,24.57
2023-05-09T14:25:47.953Z,24.48
2023-05-09T14:26:52.347Z,24.47
2023-05-09T14:27:54.481Z,24.41
2023-05-09T14:28:57.309Z,24.41
2023-05-09T14:29:59.219Z,24.04
2023-05-09T14:31:01.437Z,24.14
2023-05-09T14:32:04.083Z,24.32
2023-05-09T14:33:07.154Z,24.38
2023-05-09T14:34:09.419Z,24.47
2023-05-09T14:35:11.687Z,24.58
2023-05-09T14:36:14.638Z,24.73
2023-05-09T14:37:16.750Z,24.80
2023-05-09T14:38:18.824Z,24.81
2023-05-09T14:39:21.008Z,24.52
2023-05-09T14:40:23.349Z,24.67
2023-05-09T14:41:25.359Z,24.63
2023-05-09T14:42:27.503Z,24.65
2023-05-09T14:43:29.726Z,24.58
2023-05-09T14:44:31.645Z,24.64
2023-05-09T14:45:35.668Z,24.76
2023-05-09T14:46:37.877Z,24.84
2023-05-09T14:47:40.184Z,25.03
2023-05-09T14:48:42.676Z,25.08
2023-05-09T14:49:44.779Z,25.17
2023-05-09T14:50:49.361Z,25.04
2023-05-09T14:51:51.602Z,25.19
2023-05-09T14:52:53.565Z,25.24
2023-05-09T14:53:55.838Z,25.31
2023-05-09T14:55:00.847Z,25.16
2023-05-09T14:56:06.275Z,25.25
2023-05-09T14:57:08.584Z,25.24
2023-05-09T14:58:10.490Z,24.93
2023-05-09T14:59:12.764Z,24.93
2023-05-09T15:00:21.737Z,24.92
2023-05-09T15:01:23.364Z,24.92
2023-05-09T15:02:25.554Z,25.01
2023-05-09T15:03:28.792Z,25.04
2023-05-09T15:04:30.955Z,25.18
2023-05-09T15:05:33.789Z,25.25
2023-05-09T15:06:36.045Z,25.31
2023-05-09T15:07:37.974Z,25.28
2023-05-09T15:08:41.206Z,25.21
2023-05-09T15:09:43.249Z,25.35
2023-05-09T15:10:47.859Z,25.35
2023-05-09T15:11:50.029Z,25.39
2023-05-09T15:12:52.344Z,25.62
2023-05-09T15:13:54.479Z,25.59
2023-05-09T15:15:15.836Z,25.52
2023-05-09T15:16:18.398Z,25.52
2023-05-09T15:17:21.165Z,25.51
2023-05-09T15:18:23.199Z,25.41
2023-05-09T15:19:25.213Z,25.46
2023-05-09T15:20:27.331Z,25.58
2023-05-09T15:21:29.323Z,25.64
2023-05-09T15:22:31.787Z,25.47
2023-05-09T15:23:33.939Z,25.45
2023-05-09T15:24:36.238Z,25.41
2023-05-09T15:25:40.415Z,25.58
2023-05-09T15:26:42.563Z,25.78
2023-05-09T15:27:44.834Z,25.85
2023-05-09T15:28:46.835Z,25.94
2023-05-09T15:29:49.605Z,26.09
2023-05-09T15:30:51.743Z,26.17
2023-05-09T15:34:07.987Z,26.06
2023-05-09T15:35:10.206Z,26.17
2023-05-09T15:36:12.692Z,26.05
2023-05-09T15:37:14.560Z,26.09
2023-05-09T15:38:17.544Z,26.02
2023-05-09T15:39:19.641Z,25.97
2023-05-09T15:40:22.000Z,25.94
2023-05-09T15:41:23.918Z,25.96
2023-05-09T15:42:25.754Z,25.93
2023-05-09T15:43:27.713Z,25.95
2023-05-09T15:44:29.782Z,25.98
2023-05-09T15:45:32.976Z,25.88
2023-05-09T15:46:35.226Z,25.85
2023-05-09T15:47:37.732Z,25.99
2023-05-09T15:48:40.085Z,26.12
2023-05-09T15:49:42.153Z,26.15
2023-05-09T15:50:44.446Z,26.30
2023-05-09T15:51:46.559Z,26.52
2023-05-09T15:52:48.501Z,26.67
2023-05-09T15:53:50.643Z,26.88
2023-05-09T15:54:54.669Z,26.81
2023-05-09T15:55:56.960Z,26.78
2023-05-09T15:56:59.009Z,26.75
2023-05-09T15:58:01.248Z,26.79
2023-05-09T15:59:03.352Z,26.70
2023-05-09T16:00:07.818Z,26.64
2023-05-09T16:01:11.793Z,26.64
2023-05-09T16:02:14.324Z,26.76
2023-05-09T16:03:17.546Z,26.42
2023-05-09T16:04:19.854Z,26.43
2023-05-09T16:05:21.812Z,26.48
2023-05-09T16:06:24.051Z,26.52
2023-05-09T16:07:26.065Z,26.47
2023-05-09T16:08:28.222Z,26.60
2023-05-09T16:09:30.216Z,26.52
2023-05-09T16:10:32.728Z,26.53
2023-05-09T16:11:34.933Z,26.60
2023-05-09T16:12:37.067Z,26.74
2023-05-09T16:13:39.405Z,26.76
2023-05-09T16:14:43.639Z,26.65
2023-05-09T16:15:45.817Z,26.75
2023-05-09T16:16:48.330Z,26.84
2023-05-09T16:17:50.548Z,26.75
2023-05-09T16:18:52.582Z,26.64
2023-05-09T16:19:55.618Z,26.71
2023-05-09T16:20:59.608Z,26.62
2023-05-09T16:22:01.942Z,26.60
2023-05-09T16:23:04.098Z,26.55
2023-05-09T16:24:09.177Z,26.59
2023-05-09T16:25:11.392Z,26.72
2023-05-09T16:26:14.470Z,26.87
2023-05-09T16:27:17.299Z,27.01
2023-05-09T16:28:20.422Z,27.06
2023-05-09T16:29:22.525Z,27.28
2023-05-09T16:30:25.855Z,27.31
2023-05-09T16:31:28.031Z,27.63
2023-05-09T16:32:30.090Z,27.47
2023-05-09T16:33:32.170Z,27.24
2023-05-09T16:35:45.231Z,27.16
2023-05-09T16:36:47.879Z,27.23
2023-05-09T16:37:49.784Z,26.91
2023-05-09T16:38:52.330Z,27.02
2023-05-09T16:39:54.449Z,26.87
2023-05-09T16:40:56.921Z,26.75
2023-05-09T16:41:59.172Z,26.58
2023-05-09T16:43:01.088Z,26.35
2023-05-09T16:44:04.160Z,26.30
2023-05-09T16:45:10.960Z,26.27
2023-05-09T16:46:13.244Z,26.55
2023-05-09T16:47:15.281Z,26.73
2023-05-09T16:48:17.311Z,26.90
2023-05-09T16:49:19.351Z,27.10
2023-05-09T16:50:21.708Z,27.22
2023-05-09T16:51:25.002Z,27.30
2023-05-09T16:52:27.234Z,27.32
2023-05-09T16:53:29.254Z,27.54
2023-05-09T16:54:31.199Z,27.43
2023-05-09T16:55:33.324Z,27.67
2023-05-09T16:56:36.124Z,27.76
2023-05-09T16:57:38.272Z,27.98
2023-05-09T16:58:40.169Z,27.90
2023-05-09T16:59:42.156Z,27.91
2023-05-09T17:00:44.686Z,27.98
2023-05-09T17:01:46.735Z,28.07
2023-05-09T17:02:48.930Z,28.11
2023-05-09T17:03:51.113Z,28.24
2023-05-09T17:04:53.632Z,28.22
2023-05-09T17:05:56.049Z,28.29
2023-05-09T17:06:58.088Z,28.37
2023-05-09T17:08:00.629Z,28.26
2023-05-09T17:09:02.631Z,28.32
2023-05-09T17:10:08.606Z,28.43
2023-05-09T17:11:10.756Z,28.50
2023-05-09T17:12:12.660Z,28.50
2023-05-09T17:13:14.560Z,28.62
2023-05-09T17:14:17.948Z,28.70
2023-05-09T17:15:20.155Z,28.74
2023-05-09T17:16:23.816Z,28.74
2023-05-09T17:17:26.351Z,28.91
2023-05-09T17:18:36.906Z,29.00
2023-05-09T17:19:33.242Z,29.02
2023-05-09T17:20:35.359Z,28.95
2023-05-09T17:21:37.919Z,29.06
2023-05-09T17:22:39.873Z,29.15
2023-05-09T17:23:42.521Z,29.24
2023-05-09T17:24:45.291Z,29.34
2023-05-09T17:25:47.579Z,29.34
2023-05-09T17:26:49.719Z,29.36
2023-05-09T17:27:53.331Z,29.49
2023-05-09T17:28:55.415Z,29.63
2023-05-09T17:29:57.470Z,29.68
2023-05-09T17:31:00.142Z,29.73
2023-05-09T17:32:02.369Z,29.90
2023-05-09T17:33:05.039Z,30.08
2023-05-09T17:34:07.061Z,30.09
2023-05-09T17:35:10.248Z,30.19
2023-05-09T17:36:13.095Z,30.20
2023-05-09T17:37:15.464Z,30.24
2023-05-09T17:38:17.522Z,30.36
2023-05-09T17:39:19.926Z,30.41
2023-05-09T17:40:23.962Z,30.38
2023-05-09T17:41:26.306Z,30.32
2023-05-09T17:42:28.477Z,30.41
2023-05-09T17:43:30.454Z,30.59
2023-05-09T17:44:32.661Z,30.49
2023-05-09T17:45:34.956Z,30.53
2023-05-09T17:46:37.199Z,30.60
2023-05-09T17:47:39.388Z,30.76
2023-05-09T17:48:41.919Z,30.83
2023-05-09T17:49:44.058Z,31.12
2023-05-09T17:50:46.294Z,31.13
2023-05-09T17:51:48.572Z,31.19
2023-05-09T17:52:50.503Z,31.20
2023-05-09T17:53:52.723Z,31.13
2023-05-09T17:54:54.791Z,31.15
2023-05-09T17:55:57.677Z,31.21
2023-05-09T17:56:59.862Z,31.35
2023-05-09T17:58:01.940Z,31.22
2023-05-09T17:59:04.186Z,31.31
2023-05-09T18:00:09.478Z,31.25
2023-05-09T18:01:13.459Z,31.35
2023-05-09T18:02:33.872Z,31.25
2023-05-09T18:03:36.563Z,31.29
2023-05-09T18:04:38.894Z,31.38
2023-05-09T18:05:41.247Z,31.39
2023-05-09T18:06:43.441Z,31.43
2023-05-09T18:07:45.475Z,31.47
2023-05-09T18:08:47.605Z,31.46
2023-05-09T18:09:49.766Z,31.20
2023-05-09T18:10:52.619Z,31.33
2023-05-09T18:11:54.677Z,31.34
2023-05-09T18:12:56.834Z,31.44
2023-05-09T18:13:59.058Z,31.51
2023-05-09T18:15:01.669Z,31.34
2023-05-09T18:16:07.271Z,31.36
2023-05-09T18:17:09.377Z,31.40
2023-05-09T18:18:14.289Z,31.54
2023-05-09T18:19:16.501Z,31.76
2023-05-09T18:20:19.962Z,31.75
2023-05-09T18:21:22.129Z,31.85
2023-05-09T18:22:24.168Z,31.88
2023-05-09T18:23:26.917Z,31.91
2023-05-09T18:24:28.830Z,31.98
2023-05-09T18:25:30.981Z,32.12
2023-05-09T18:26:33.201Z,32.17
2023-05-09T18:27:35.437Z,32.33
2023-05-09T18:28:37.489Z,32.34
2023-05-09T18:29:39.537Z,33.00
2023-05-09T18:30:41.541Z,32.73
2023-05-09T18:31:44.411Z,32.75
2023-05-09T18:32:46.881Z,32.76
2023-05-09T18:33:49.169Z,32.83
2023-05-09T18:34:51.080Z,32.94
2023-05-09T18:35:54.244Z,33.03
2023-05-09T18:36:57.319Z,32.86
2023-05-09T18:37:59.458Z,32.93
2023-05-09T18:39:01.580Z,32.68
2023-05-09T18:40:07.798Z,32.91
2023-05-09T18:41:11.822Z,32.67
2023-05-09T18:42:16.212Z,32.90
2023-05-09T18:43:18.435Z,32.81
2023-05-09T18:44:20.461Z,32.60
2023-05-09T18:45:22.499Z,32.64
2023-05-09T18:46:24.631Z,32.68
2023-05-09T18:47:26.798Z,32.67
2023-05-09T18:48:29.246Z,32.63
2023-05-09T18:49:31.255Z,32.72
2023-05-09T18:50:33.396Z,32.86
2023-05-09T18:51:35.310Z,32.89
2023-05-09T18:52:37.458Z,32.85
2023-05-09T18:53:39.561Z,32.89
2023-05-09T18:54:41.653Z,32.94
2023-05-09T18:55:43.857Z,33.13
2023-05-09T18:56:46.010Z,33.34
2023-05-09T18:57:48.484Z,33.50
2023-05-09T18:58:50.511Z,33.66
2023-05-09T18:59:52.465Z,33.90
2023-05-09T19:00:54.596Z,33.99
2023-05-09T19:01:56.877Z,34.09
2023-05-09T19:02:59.051Z,34.25
2023-05-09T19:04:02.161Z,34.13
2023-05-09T19:05:07.874Z,34.19
2023-05-09T19:06:10.104Z,34.45
2023-05-09T19:07:12.553Z,34.45
2023-05-09T19:08:14.686Z,34.35
2023-05-09T19:09:17.043Z,34.39
2023-05-09T19:10:21.863Z,34.40
2023-05-09T19:11:23.889Z,34.36
2023-05-09T19:12:26.012Z,34.47
2023-05-09T19:13:28.725Z,34.56
2023-05-09T19:14:31.150Z,34.31
2023-05-09T19:15:33.306Z,34.43
2023-05-09T19:16:35.472Z,34.55
2023-05-09T19:17:37.964Z,34.64
2023-05-09T19:18:40.567Z,34.48
2023-05-09T19:19:42.556Z,34.61
2023-05-09T19:20:44.801Z,34.70
2023-05-09T19:21:49.052Z,34.73
2023-05-09T19:22:50.951Z,34.74
2023-05-09T19:23:53.234Z,34.67
2023-05-09T19:24:58.112Z,34.66
2023-05-09T19:26:00.382Z,34.68
2023-05-09T19:27:04.395Z,34.67
2023-05-09T19:28:06.550Z,34.71
2023-05-09T19:29:08.675Z,34.69
2023-05-09T19:30:15.005Z,34.78
2023-05-09T19:31:17.422Z,34.90
2023-05-09T19:32:20.511Z,34.78
2023-05-09T19:33:22.642Z,34.78
2023-05-09T19:34:24.793Z,34.77
2023-05-09T19:35:26.948Z,34.86
2023-05-09T19:36:29.008Z,34.88
2023-05-09T19:37:31.063Z,34.77
2023-05-09T19:38:32.909Z,34.82
2023-05-09T19:39:34.936Z,34.99
2023-05-09T19:40:38.815Z,34.95
2023-05-09T19:41:40.779Z,34.95
2023-05-09T19:42:43.681Z,35.03
2023-05-09T19:43:48.347Z,35.06
2023-05-09T19:44:50.413Z,35.15
2023-05-09T19:45:52.744Z,35.18
2023-05-09T19:46:55.348Z,35.18
2023-05-09T19:47:59.202Z,35.24
2023-05-09T19:49:01.424Z,35.31
2023-05-09T19:50:08.613Z,35.36
2023-05-09T19:51:10.957Z,35.46
2023-05-09T19:52:13.020Z,35.43
2023-05-09T19:53:14.967Z,35.52
2023-05-09T19:54:16.894Z,35.53
2023-05-09T19:55:18.944Z,35.65
2023-05-09T19:56:21.147Z,35.71
2023-05-09T19:57:23.234Z,35.63
2023-05-09T19:58:25.150Z,35.84
2023-05-09T19:59:28.478Z,35.77
2023-05-09T20:00:30.736Z,35.74
2023-05-09T20:01:32.756Z,36.15
2023-05-09T20:02:35.201Z,36.17
2023-05-09T20:03:37.690Z,35.92
2023-05-09T20:04:40.638Z,35.82
2023-05-09T20:08:16.616Z,35.71
2023-05-09T20:09:18.979Z,35.35
2023-05-09T20:10:21.131Z,35.32
2023-05-09T20:11:24.260Z,35.46
2023-05-09T20:12:27.844Z,35.56
2023-05-09T20:13:30.302Z,35.71
2023-05-09T20:14:32.395Z,35.77
2023-05-09T20:15:34.546Z,35.87
2023-05-09T20:16:36.635Z,36.22
2023-05-09T20:17:38.931Z,36.49
2023-05-09T20:18:41.804Z,36.53
2023-05-09T20:19:43.800Z,36.54
2023-05-09T20:20:45.936Z,36.74
2023-05-09T20:21:49.260Z,36.92
2023-05-09T20:22:51.416Z,37.10
2023-05-09T20:23:53.485Z,37.34
2023-05-09T20:24:55.561Z,37.43
2023-05-09T20:25:57.459Z,37.74
2023-05-09T20:26:59.518Z,37.83
2023-05-09T20:28:01.348Z,37.75
2023-05-09T20:29:03.575Z,37.88
2023-05-09T20:30:09.550Z,37.98
2023-05-09T20:31:11.917Z,38.29
2023-05-09T20:32:14.012Z,38.46
2023-05-09T20:33:17.170Z,38.27
2023-05-09T20:34:19.308Z,38.46
2023-05-09T20:35:22.952Z,38.40
2023-05-09T20:36:25.865Z,38.44
2023-05-09T20:37:27.955Z,38.55